createdAt,value
2018-06-09T00:00:47.193Z,13.40
2018-06-09T00:03:13.995Z,6.70
2018-06-09T00:05:40.879Z,7.08
2018-06-09T00:08:07.707Z,7.60
2018-06-09T00:10:34.529Z,7.43
2018-06-09T00:13:01.360Z,6.70
2018-06-09T00:15:28.257Z,6.80
2018-06-09T00:17:55.068Z,6.20
2018-06-09T00:20:21.890Z,6.80
2018-06-09T00:22:48.714Z,7.20
2018-06-09T00:25:15.533Z,5.93
2018-06-09T00:27:42.362Z,7.05
2018-06-09T00:30:09.194Z,6.97
2018-06-09T00:32:36.034Z,6.50
2018-06-09T00:35:02.862Z,6.43
2018-06-09T00:37:29.685Z,10.40
2018-06-09T00:39:56.521Z,6.67
2018-06-09T00:42:23.343Z,7.20
2018-06-09T00:44:50.186Z,7.27
2018-06-09T00:47:17.512Z,6.40
2018-06-09T00:49:44.330Z,6.63
2018-06-09T00:52:11.158Z,6.67
2018-06-09T00:54:37.978Z,7.70
2018-06-09T00:57:04.984Z,8.40
2018-06-09T00:59:31.806Z,6.60
2018-06-09T01:01:58.636Z,5.50
2018-06-09T01:04:25.481Z,6.20
2018-06-09T01:06:52.359Z,8.98
2018-06-09T01:09:19.175Z,6.75
2018-06-09T01:11:45.997Z,6.43
2018-06-09T01:14:12.816Z,6.77
2018-06-09T01:16:40.047Z,6.87
2018-06-09T01:19:06.791Z,7.30
2018-06-09T01:21:33.617Z,6.13
2018-06-09T01:24:00.443Z,6.50
2018-06-09T01:26:27.301Z,6.83
2018-06-09T01:28:54.135Z,5.73
2018-06-09T01:31:20.950Z,6.63
2018-06-09T01:33:47.838Z,6.03
2018-06-09T01:36:14.678Z,6.47
2018-06-09T01:38:41.537Z,5.73
2018-06-09T01:41:08.361Z,5.90
2018-06-09T01:43:35.187Z,6.23
2018-06-09T01:46:02.041Z,6.53
2018-06-09T01:48:28.871Z,6.30
2018-06-09T01:50:55.699Z,6.25
2018-06-09T01:53:22.538Z,6.37
2018-06-09T01:55:49.419Z,5.30
2018-06-09T01:58:16.239Z,5.40
2018-06-09T02:00:43.065Z,6.20
2018-06-09T02:03:09.885Z,6.03
2018-06-09T02:05:36.785Z,6.50
2018-06-09T02:08:03.626Z,5.53
2018-06-09T02:10:30.445Z,5.53
2018-06-09T02:12:57.282Z,5.87
2018-06-09T02:15:24.157Z,5.47
2018-06-09T02:17:50.986Z,6.00
2018-06-09T02:20:17.830Z,5.80
2018-06-09T02:22:44.658Z,5.20
2018-06-09T02:25:11.494Z,5.03
2018-06-09T02:27:38.381Z,6.43
2018-06-09T02:30:05.202Z,5.80
2018-06-09T02:32:32.024Z,5.87
2018-06-09T02:34:58.847Z,6.93
2018-06-09T02:37:25.684Z,6.17
2018-06-09T02:39:52.598Z,4.83
2018-06-09T02:42:19.422Z,5.22
2018-06-09T02:44:46.245Z,5.60
2018-06-09T02:47:13.774Z,5.47
2018-06-09T02:49:40.742Z,5.83
2018-06-09T02:52:07.565Z,5.00
2018-06-09T02:54:34.398Z,5.00
2018-06-09T02:57:01.315Z,5.60
2018-06-09T02:59:28.140Z,5.70
2018-06-09T03:01:54.967Z,5.55
2018-06-09T03:04:21.793Z,5.40
2018-06-09T03:06:48.690Z,5.37
2018-06-09T03:09:15.527Z,9.70
2018-06-09T03:11:42.351Z,10.80
2018-06-09T03:14:09.177Z,10.60
2018-06-09T03:16:36.059Z,7.00
2018-06-09T03:19:02.890Z,6.20
2018-06-09T03:21:29.696Z,6.73
2018-06-09T03:23:56.630Z,6.30
2018-06-09T03:26:23.671Z,9.17
2018-06-09T03:28:50.458Z,5.97
2018-06-09T03:31:17.361Z,5.70
2018-06-09T03:33:44.171Z,5.70
2018-06-09T03:36:11.001Z,5.90
2018-06-09T03:38:38.029Z,5.53
2018-06-09T03:41:04.834Z,5.80
2018-06-09T03:43:31.742Z,8.53
2018-06-09T03:45:58.857Z,11.45
2018-06-09T03:48:26.900Z,5.50
2018-06-09T03:50:53.698Z,5.60
2018-06-09T03:53:20.837Z,6.40
2018-06-09T03:55:47.997Z,5.60
2018-06-09T03:58:14.816Z,6.10
2018-06-09T04:00:42.358Z,7.30
2018-06-09T04:03:11.333Z,6.00
2018-06-09T04:05:38.237Z,5.57
2018-06-09T04:08:05.055Z,4.90
2018-06-09T04:10:33.357Z,6.30
2018-06-09T04:13:01.299Z,4.93
2018-06-09T04:15:28.269Z,5.83
2018-06-09T04:17:55.361Z,5.33
2018-06-09T04:20:22.469Z,6.13
2018-06-09T04:22:49.442Z,6.40
2018-06-09T04:25:16.263Z,6.30
2018-06-09T04:27:44.012Z,5.22
2018-06-09T04:30:12.429Z,6.13
2018-06-09T04:32:39.478Z,5.20
2018-06-09T04:35:06.297Z,5.63
2018-06-09T04:37:33.140Z,5.37
2018-06-09T04:40:00.971Z,5.37
2018-06-09T04:42:27.728Z,5.37
2018-06-09T04:44:54.550Z,4.90
2018-06-09T04:47:21.779Z,5.33
2018-06-09T04:49:49.507Z,5.20
2018-06-09T04:52:16.354Z,5.43
2018-06-09T04:54:43.740Z,4.95
2018-06-09T04:57:11.726Z,4.90
2018-06-09T04:59:38.787Z,5.17
2018-06-09T05:02:05.609Z,4.90
2018-06-09T05:04:32.448Z,4.92
2018-06-09T05:06:59.350Z,4.92
2018-06-09T05:09:26.188Z,4.83
2018-06-09T05:11:53.276Z,5.63
2018-06-09T05:14:20.102Z,4.75
2018-06-09T05:16:46.929Z,6.87
2018-06-09T05:19:13.750Z,5.63
2018-06-09T05:21:40.594Z,5.77
2018-06-09T05:24:07.414Z,5.07
2018-06-09T05:26:34.315Z,4.73
2018-06-09T05:29:01.124Z,5.00
2018-06-09T05:31:28.039Z,6.63
2018-06-09T05:33:54.837Z,5.10
2018-06-09T05:36:22.355Z,5.43
2018-06-09T05:38:49.202Z,5.40
2018-06-09T05:41:16.093Z,4.40
2018-06-09T05:43:43.058Z,4.33
2018-06-09T05:46:10.057Z,5.23
2018-06-09T05:48:36.876Z,4.50
2018-06-09T05:51:03.710Z,7.57
2018-06-09T05:53:30.731Z,5.27
2018-06-09T05:55:57.638Z,4.83
2018-06-09T05:58:24.476Z,4.30
2018-06-09T06:00:51.299Z,4.60
2018-06-09T06:03:18.117Z,4.57
2018-06-09T06:05:45.019Z,5.40
2018-06-09T06:08:11.829Z,4.50
2018-06-09T06:10:38.663Z,4.62
2018-06-09T06:13:05.501Z,5.12
2018-06-09T06:15:32.385Z,4.85
2018-06-09T06:17:59.223Z,5.97
2018-06-09T06:20:26.034Z,5.30
2018-06-09T06:22:52.864Z,4.50
2018-06-09T06:25:19.720Z,6.73
2018-06-09T06:27:46.534Z,5.80
2018-06-09T06:30:13.368Z,6.33
2018-06-09T06:32:40.322Z,7.93
2018-06-09T06:35:07.378Z,7.03
2018-06-09T06:37:34.374Z,4.80
2018-06-09T06:40:01.182Z,4.80
2018-06-09T06:42:28.007Z,5.43
2018-06-09T06:44:54.924Z,6.25
2018-06-09T06:47:22.001Z,4.90
2018-06-09T06:49:48.794Z,5.00
2018-06-09T06:52:15.614Z,5.40
2018-06-09T06:54:42.429Z,5.90
2018-06-09T06:57:09.526Z,5.75
2018-06-09T06:59:36.413Z,5.53
2018-06-09T07:02:03.227Z,4.37
2018-06-09T07:04:30.030Z,4.60
2018-06-09T07:06:56.908Z,4.73
2018-06-09T07:09:23.724Z,5.13
2018-06-09T07:11:50.553Z,11.53
2018-06-09T07:14:17.379Z,6.10
2018-06-09T07:16:44.283Z,6.00
2018-06-09T07:19:11.101Z,4.73
2018-06-09T07:21:37.928Z,4.60
2018-06-09T07:24:04.751Z,5.42
2018-06-09T07:26:31.664Z,8.13
2018-06-09T07:28:58.473Z,11.90
2018-06-09T07:31:25.297Z,14.35
2018-06-09T07:33:52.180Z,15.68
2018-06-09T07:36:19.013Z,16.93
2018-06-09T07:38:45.840Z,14.10
2018-06-09T07:41:12.676Z,16.50
2018-06-09T07:43:39.506Z,16.17
2018-06-09T07:46:06.411Z,21.47
2018-06-09T07:48:33.481Z,23.07
2018-06-09T07:51:00.321Z,15.07
2018-06-09T07:53:27.150Z,16.57
2018-06-09T07:55:54.174Z,16.97
2018-06-09T07:58:21.002Z,18.87
2018-06-09T08:00:47.904Z,17.13
2018-06-09T08:03:14.747Z,19.77
2018-06-09T08:05:41.753Z,19.43
2018-06-09T08:08:08.579Z,29.20
2018-06-09T08:10:35.467Z,22.90
2018-06-09T08:13:02.521Z,20.83
2018-06-09T08:15:29.544Z,17.80
2018-06-09T08:17:56.366Z,19.23
2018-06-09T08:20:23.201Z,17.60
2018-06-09T08:22:50.034Z,19.80
2018-06-09T08:25:16.868Z,21.02
2018-06-09T08:27:43.702Z,20.82
2018-06-09T08:30:11.208Z,22.23
2018-06-09T08:32:38.038Z,22.87
2018-06-09T08:35:04.868Z,20.27
2018-06-09T08:37:31.708Z,19.50
2018-06-09T08:39:58.537Z,22.50
2018-06-09T08:42:25.342Z,19.48
2018-06-09T08:44:52.167Z,20.77
2018-06-09T08:47:19.386Z,23.73
2018-06-09T08:49:46.214Z,21.85
2018-06-09T08:52:13.048Z,23.80
2018-06-09T08:54:39.932Z,30.03
2018-06-09T08:57:06.902Z,26.47
2018-06-09T08:59:33.722Z,25.50
2018-06-09T09:02:00.560Z,22.47
2018-06-09T09:04:27.382Z,19.53
2018-06-09T09:06:54.250Z,19.67
2018-06-09T09:09:21.106Z,19.90
2018-06-09T09:11:47.924Z,20.87
2018-06-09T09:14:14.746Z,19.42
2018-06-09T09:16:41.627Z,22.30
2018-06-09T09:19:08.462Z,21.07
2018-06-09T09:21:35.338Z,21.90
2018-06-09T09:24:02.166Z,23.47
2018-06-09T09:26:28.998Z,19.87
2018-06-09T09:28:55.882Z,23.90
2018-06-09T09:31:22.718Z,20.47
2018-06-09T09:33:49.534Z,22.00
2018-06-09T09:36:16.581Z,23.30
2018-06-09T09:38:43.414Z,24.50
2018-06-09T09:41:10.233Z,22.53
2018-06-09T09:43:37.087Z,23.70
2018-06-09T09:46:03.950Z,26.05
2018-06-09T09:48:30.779Z,27.87
2018-06-09T09:50:57.607Z,27.93
2018-06-09T09:53:24.441Z,23.25
2018-06-09T09:55:51.315Z,27.87
2018-06-09T09:58:18.164Z,23.73
2018-06-09T10:00:44.986Z,35.00
2018-06-09T10:03:11.826Z,33.70
2018-06-09T10:05:38.690Z,33.17
2018-06-09T10:08:05.505Z,27.73
2018-06-09T10:10:32.381Z,28.97
2018-06-09T10:12:59.198Z,25.93
2018-06-09T10:15:26.086Z,26.60
2018-06-09T10:17:52.931Z,23.10
2018-06-09T10:20:19.754Z,31.50
2018-06-09T10:22:46.582Z,25.95
2018-06-09T10:25:13.425Z,20.60
2018-06-09T10:27:40.274Z,28.57
2018-06-09T10:30:07.110Z,28.03
2018-06-09T10:32:33.931Z,27.70
2018-06-09T10:35:00.754Z,26.03
2018-06-09T10:37:27.582Z,28.10
2018-06-09T10:39:54.392Z,24.77
2018-06-09T10:42:21.221Z,45.33
2018-06-09T10:44:48.059Z,29.65
2018-06-09T10:47:16.037Z,27.20
2018-06-09T10:49:42.850Z,22.23
2018-06-09T10:52:09.687Z,22.97
2018-06-09T10:54:36.519Z,30.30
2018-06-09T10:57:03.421Z,29.83
2018-06-09T10:59:30.455Z,24.90
2018-06-09T11:01:57.267Z,25.17
2018-06-09T11:04:24.094Z,21.70
2018-06-09T11:06:51.014Z,23.37
2018-06-09T11:09:17.834Z,29.53
2018-06-09T11:11:44.690Z,24.50
2018-06-09T11:14:11.923Z,28.02
2018-06-09T11:16:38.779Z,26.80
2018-06-09T11:19:05.862Z,24.50
2018-06-09T11:21:32.722Z,24.50
2018-06-09T11:23:59.535Z,28.50
2018-06-09T11:26:26.732Z,29.20
2018-06-09T11:28:53.528Z,23.90
2018-06-09T11:31:20.373Z,19.60
2018-06-09T11:33:47.222Z,19.53
2018-06-09T11:36:14.128Z,22.82
2018-06-09T11:38:40.995Z,20.65
2018-06-09T11:41:07.818Z,21.97
2018-06-09T11:43:34.674Z,20.85
2018-06-09T11:46:01.502Z,22.57
2018-06-09T11:48:28.348Z,20.27
2018-06-09T11:50:55.171Z,23.90
2018-06-09T11:53:22.106Z,19.97
2018-06-09T11:55:49.080Z,20.47
2018-06-09T11:58:15.905Z,17.87
2018-06-09T12:00:42.749Z,26.77
2018-06-09T12:03:09.571Z,19.03
2018-06-09T12:05:36.478Z,18.87
2018-06-09T12:08:03.306Z,17.80
2018-06-09T12:10:30.139Z,18.82
2018-06-09T12:12:56.975Z,22.17
2018-06-09T12:15:23.827Z,18.12
2018-06-09T12:17:50.660Z,18.48
2018-06-09T12:20:17.505Z,19.15
2018-06-09T12:22:44.326Z,19.17
2018-06-09T12:25:11.192Z,19.00
2018-06-09T12:27:38.006Z,17.07
2018-06-09T12:30:04.840Z,16.60
2018-06-09T12:32:31.697Z,19.03
2018-06-09T12:34:58.535Z,18.73
2018-06-09T12:37:25.363Z,16.63
2018-06-09T12:39:52.180Z,17.67
2018-06-09T12:42:19.043Z,18.35
2018-06-09T12:44:45.859Z,17.60
2018-06-09T12:47:12.791Z,17.47
2018-06-09T12:49:39.628Z,15.87
2018-06-09T12:52:06.484Z,16.80
2018-06-09T12:54:33.335Z,17.30
2018-06-09T12:57:00.358Z,23.33
2018-06-09T12:59:27.195Z,15.53
2018-06-09T13:01:54.006Z,17.10
2018-06-09T13:04:20.881Z,18.80
2018-06-09T13:06:47.751Z,17.55
2018-06-09T13:09:14.580Z,16.35
2018-06-09T13:11:41.403Z,16.48
2018-06-09T13:14:08.291Z,20.73
2018-06-09T13:16:35.100Z,18.10
2018-06-09T13:19:01.915Z,18.17
2018-06-09T13:21:28.803Z,17.33
2018-06-09T13:23:55.824Z,16.80
2018-06-09T13:26:22.762Z,21.70
2018-06-09T13:28:50.006Z,16.40
2018-06-09T13:31:17.228Z,16.87
2018-06-09T13:33:44.316Z,16.60
2018-06-09T13:36:11.378Z,16.07
2018-06-09T13:38:38.635Z,16.40
2018-06-09T13:41:06.503Z,16.33
2018-06-09T13:43:33.308Z,17.20
2018-06-09T13:46:00.293Z,19.63
2018-06-09T13:48:27.112Z,17.30
2018-06-09T13:50:53.938Z,23.27
2018-06-09T13:53:20.776Z,17.87
2018-06-09T13:55:47.654Z,18.00
2018-06-09T13:58:14.491Z,23.67
2018-06-09T14:00:41.312Z,15.83
2018-06-09T14:03:08.138Z,16.60
2018-06-09T14:05:35.029Z,16.43
2018-06-09T14:08:01.856Z,15.70
2018-06-09T14:10:28.682Z,16.30
2018-06-09T14:12:55.550Z,15.23
2018-06-09T14:15:22.414Z,18.10
2018-06-09T14:17:49.288Z,12.03
2018-06-09T14:20:16.126Z,12.20
2018-06-09T14:22:42.928Z,16.23
2018-06-09T14:25:09.755Z,10.83
2018-06-09T14:27:36.586Z,10.03
2018-06-09T14:30:03.435Z,11.27
2018-06-09T14:32:31.245Z,12.50
2018-06-09T14:34:58.065Z,10.80
2018-06-09T14:37:24.893Z,14.50
2018-06-09T14:39:51.730Z,12.93
2018-06-09T14:42:18.555Z,12.40
2018-06-09T14:44:45.394Z,12.27
2018-06-09T14:47:12.389Z,15.37
2018-06-09T14:49:39.202Z,11.30
2018-06-09T14:52:06.057Z,10.83
2018-06-09T14:54:32.881Z,13.20
2018-06-09T14:56:59.972Z,9.97
2018-06-09T14:59:26.790Z,12.30
2018-06-09T15:01:53.624Z,10.73
2018-06-09T15:04:20.461Z,12.00
2018-06-09T15:06:47.333Z,12.37
2018-06-09T15:09:14.182Z,14.67
2018-06-09T15:11:41.026Z,14.03
2018-06-09T15:14:07.853Z,12.03
2018-06-09T15:16:34.720Z,15.60
2018-06-09T15:19:01.551Z,14.98
2018-06-09T15:21:28.381Z,12.50
2018-06-09T15:23:55.222Z,14.50
2018-06-09T15:26:22.119Z,14.30
2018-06-09T15:28:48.895Z,14.20
2018-06-09T15:31:15.721Z,15.80
2018-06-09T15:33:42.634Z,15.33
2018-06-09T15:36:09.437Z,14.20
2018-06-09T15:38:36.263Z,14.60
2018-06-09T15:41:03.119Z,18.57
2018-06-09T15:43:29.955Z,15.50
2018-06-09T15:45:56.809Z,19.40
2018-06-09T15:48:23.642Z,21.90
2018-06-09T15:50:50.474Z,23.90
2018-06-09T15:53:17.329Z,18.13
2018-06-09T15:55:44.185Z,17.60
2018-06-09T15:58:11.001Z,16.57
2018-06-09T16:00:37.826Z,19.43
2018-06-09T16:03:04.650Z,21.25
2018-06-09T16:05:31.561Z,20.12
2018-06-09T16:07:58.389Z,23.00
2018-06-09T16:10:25.220Z,22.20
2018-06-09T16:12:52.051Z,20.13
2018-06-09T16:15:19.735Z,21.00
2018-06-09T16:17:46.552Z,20.63
2018-06-09T16:20:14.141Z,22.30
2018-06-09T16:22:41.069Z,18.23
2018-06-09T16:25:07.916Z,18.40
2018-06-09T16:27:34.762Z,15.97
2018-06-09T16:30:01.583Z,22.87
2018-06-09T16:32:28.705Z,16.53
2018-06-09T16:34:55.517Z,24.47
2018-06-09T16:37:22.364Z,18.37
2018-06-09T16:39:49.194Z,23.57
2018-06-09T16:42:16.035Z,22.07
2018-06-09T16:44:43.246Z,23.67
2018-06-09T16:47:10.142Z,19.53
2018-06-09T16:49:36.968Z,20.43
2018-06-09T16:52:03.792Z,17.00
2018-06-09T16:54:30.686Z,19.50
2018-06-09T16:56:57.522Z,16.67
2018-06-09T16:59:24.361Z,16.40
2018-06-09T17:01:51.215Z,20.83
2018-06-09T17:04:18.048Z,16.40
2018-06-09T17:06:44.895Z,21.80
2018-06-09T17:09:11.715Z,16.33
2018-06-09T17:11:38.539Z,17.27
2018-06-09T17:14:05.380Z,19.20
2018-06-09T17:16:32.263Z,15.17
2018-06-09T17:18:59.113Z,16.97
2018-06-09T17:21:25.937Z,15.97
2018-06-09T17:23:52.798Z,15.40
2018-06-09T17:26:19.622Z,16.83
2018-06-09T17:28:46.462Z,15.75
2018-06-09T17:31:13.303Z,17.77
2018-06-09T17:33:40.150Z,15.57
2018-06-09T17:36:07.002Z,15.60
2018-06-09T17:38:33.836Z,24.77
2018-06-09T17:41:00.658Z,45.67
2018-06-09T17:43:27.494Z,30.30
2018-06-09T17:45:54.371Z,33.23
2018-06-09T17:48:21.194Z,23.00
2018-06-09T17:50:48.030Z,24.85
2018-06-09T17:53:14.881Z,20.25
2018-06-09T17:55:41.735Z,17.07
2018-06-09T17:58:08.563Z,20.63
2018-06-09T18:00:35.427Z,25.30
2018-06-09T18:03:02.347Z,17.10
2018-06-09T18:05:29.317Z,31.97
2018-06-09T18:07:56.149Z,24.93
2018-06-09T18:10:24.204Z,20.33
2018-06-09T18:12:51.035Z,24.83
2018-06-09T18:15:17.876Z,16.97
2018-06-09T18:17:44.764Z,21.60
2018-06-09T18:20:12.233Z,19.47
2018-06-09T18:22:39.303Z,18.12
2018-06-09T18:25:06.077Z,20.33
2018-06-09T18:27:32.959Z,17.90
2018-06-09T18:29:59.774Z,16.00
2018-06-09T18:32:27.200Z,15.87
2018-06-09T18:34:54.010Z,18.98
2018-06-09T18:37:20.956Z,15.30
2018-06-09T18:39:47.809Z,17.80
2018-06-09T18:42:14.662Z,14.87
2018-06-09T18:44:41.465Z,15.50
2018-06-09T18:47:08.312Z,20.40
2018-06-09T18:49:35.181Z,15.60
2018-06-09T18:52:01.989Z,17.70
2018-06-09T18:54:28.818Z,18.20
2018-06-09T18:56:55.707Z,15.75
2018-06-09T18:59:22.577Z,14.50
2018-06-09T19:01:49.402Z,15.83
2018-06-09T19:04:16.270Z,17.20
2018-06-09T19:06:43.266Z,19.20
2018-06-09T19:09:10.094Z,17.67
2018-06-09T19:11:36.920Z,15.30
2018-06-09T19:14:04.744Z,14.33
2018-06-09T19:16:31.669Z,17.47
2018-06-09T19:18:58.494Z,13.07
2018-06-09T19:21:25.332Z,19.60
2018-06-09T19:23:52.191Z,16.02
2018-06-09T19:26:19.089Z,23.02
2018-06-09T19:28:45.896Z,14.03
2018-06-09T19:31:12.778Z,21.23
2018-06-09T19:33:39.614Z,16.57
2018-06-09T19:36:06.610Z,24.03
2018-06-09T19:38:33.451Z,17.93
2018-06-09T19:41:00.329Z,32.87
2018-06-09T19:43:27.165Z,14.80
2018-06-09T19:45:54.190Z,16.20
2018-06-09T19:48:21.069Z,14.10
2018-06-09T19:50:47.925Z,17.97
2018-06-09T19:53:14.743Z,19.70
2018-06-09T19:55:41.753Z,14.43
2018-06-09T19:58:08.590Z,13.93
2018-06-09T20:00:35.408Z,13.65
2018-06-09T20:03:02.257Z,17.40
2018-06-09T20:05:29.172Z,16.17
2018-06-09T20:07:55.993Z,19.53
2018-06-09T20:10:23.671Z,13.80
2018-06-09T20:12:50.485Z,16.60
2018-06-09T20:15:17.292Z,14.57
2018-06-09T20:17:44.111Z,15.40
2018-06-09T20:20:11.710Z,14.25
2018-06-09T20:22:38.663Z,14.13
2018-06-09T20:25:05.517Z,14.93
2018-06-09T20:27:32.334Z,24.33
2018-06-09T20:29:59.190Z,14.40
2018-06-09T20:32:27.301Z,14.73
2018-06-09T20:34:54.144Z,12.03
2018-06-09T20:37:21.208Z,12.77
2018-06-09T20:39:48.009Z,12.53
2018-06-09T20:42:14.809Z,14.10
2018-06-09T20:44:41.635Z,11.37
2018-06-09T20:47:08.525Z,16.85
2018-06-09T20:49:35.400Z,12.33
2018-06-09T20:52:02.218Z,13.05
2018-06-09T20:54:29.406Z,13.53
2018-06-09T20:56:56.311Z,14.05
2018-06-09T20:59:23.139Z,11.97
2018-06-09T21:01:49.972Z,11.75
2018-06-09T21:04:16.798Z,15.37
2018-06-09T21:06:43.682Z,11.67
2018-06-09T21:09:10.511Z,15.37
2018-06-09T21:11:37.498Z,16.60
2018-06-09T21:14:04.315Z,13.30
2018-06-09T21:16:31.508Z,13.30
2018-06-09T21:18:58.364Z,13.60
2018-06-09T21:21:25.170Z,12.77
2018-06-09T21:23:52.013Z,13.43
2018-06-09T21:26:19.039Z,12.70
2018-06-09T21:28:46.307Z,11.47
2018-06-09T21:31:13.131Z,12.93
2018-06-09T21:33:40.011Z,14.83
2018-06-09T21:36:07.025Z,16.00
2018-06-09T21:38:35.302Z,17.33
2018-06-09T21:41:02.518Z,12.20
2018-06-09T21:43:29.343Z,16.73
2018-06-09T21:45:56.452Z,15.55
2018-06-09T21:48:23.304Z,13.50
2018-06-09T21:50:51.392Z,10.98
2018-06-09T21:53:19.103Z,12.53
2018-06-09T21:55:46.066Z,11.07
2018-06-09T21:58:12.888Z,14.07
2018-06-09T22:00:39.793Z,12.60
2018-06-09T22:03:07.227Z,13.13
2018-06-09T22:05:34.878Z,11.10
2018-06-09T22:08:01.731Z,11.07
2018-06-09T22:10:28.572Z,10.55
2018-06-09T22:12:55.404Z,16.62
2018-06-09T22:15:22.246Z,11.30
2018-06-09T22:17:49.063Z,11.73
2018-06-09T22:20:15.907Z,12.93
2018-06-09T22:22:42.734Z,11.07
2018-06-09T22:25:09.552Z,10.17
2018-06-09T22:27:36.400Z,11.77
2018-06-09T22:30:03.231Z,12.43
2018-06-09T22:32:30.435Z,11.50
2018-06-09T22:34:57.175Z,11.23
2018-06-09T22:37:24.034Z,13.70
2018-06-09T22:39:50.859Z,11.00
2018-06-09T22:42:17.685Z,15.13
2018-06-09T22:44:44.519Z,11.00
2018-06-09T22:47:13.157Z,10.10
2018-06-09T22:49:39.965Z,12.73
2018-06-09T22:52:06.792Z,9.83
2018-06-09T22:54:33.619Z,11.90
2018-06-09T22:57:00.620Z,10.47
2018-06-09T22:59:27.439Z,10.60
2018-06-09T23:01:54.260Z,12.30
2018-06-09T23:04:21.089Z,10.00
2018-06-09T23:06:47.992Z,11.40
2018-06-09T23:09:14.807Z,10.80
2018-06-09T23:11:41.625Z,11.80
2018-06-09T23:14:08.452Z,9.87
2018-06-09T23:16:35.364Z,10.53
2018-06-09T23:19:02.200Z,11.40
2018-06-09T23:21:29.037Z,9.93
2018-06-09T23:23:55.869Z,10.75
2018-06-09T23:26:22.734Z,10.53
2018-06-09T23:28:49.559Z,9.87
2018-06-09T23:31:16.378Z,9.83
2018-06-09T23:33:43.218Z,10.30
2018-06-09T23:36:10.111Z,11.13
2018-06-09T23:38:36.963Z,10.83
2018-06-09T23:41:03.787Z,12.70
2018-06-09T23:43:30.630Z,10.20
2018-06-09T23:45:57.483Z,10.25
2018-06-09T23:48:24.302Z,9.60
2018-06-09T23:50:51.139Z,9.73
2018-06-09T23:53:17.965Z,9.73
2018-06-09T23:55:44.854Z,11.80
2018-06-09T23:58:11.694Z,10.00
